createdAt,value
2022-08-14T00:03:53.310Z,18.53
2022-08-14T00:09:01.656Z,18.50
2022-08-14T00:14:10.184Z,18.46
2022-08-14T00:19:24.557Z,18.44
2022-08-14T00:24:34.565Z,18.45
2022-08-14T00:29:43.125Z,18.45
2022-08-14T00:34:50.117Z,18.45
2022-08-14T00:39:58.371Z,18.44
2022-08-14T00:45:11.565Z,18.44
2022-08-14T00:50:23.165Z,18.41
2022-08-14T00:55:36.148Z,18.40
2022-08-14T01:00:50.842Z,18.39
2022-08-14T01:06:00.575Z,18.38
2022-08-14T01:11:09.632Z,18.36
2022-08-14T01:16:20.654Z,18.36
2022-08-14T01:21:38.783Z,18.38
2022-08-14T01:26:54.573Z,18.41
2022-08-14T01:32:04.275Z,18.39
2022-08-14T01:37:11.760Z,18.36
2022-08-14T01:42:30.981Z,18.35
2022-08-14T01:47:39.493Z,18.31
2022-08-14T01:52:58.395Z,18.26
2022-08-14T01:58:18.423Z,18.24
2022-08-14T02:03:30.982Z,18.25
2022-08-14T02:08:38.493Z,18.26
2022-08-14T02:14:07.497Z,18.24
2022-08-14T02:19:18.397Z,18.21
2022-08-14T02:24:38.807Z,18.20
2022-08-14T02:30:00.171Z,18.20
2022-08-14T02:35:18.207Z,18.21
2022-08-14T02:40:32.412Z,18.22
2022-08-14T02:45:45.150Z,18.22
2022-08-14T02:50:53.546Z,18.19
2022-08-14T02:56:03.020Z,18.19
2022-08-14T03:01:31.275Z,18.20
2022-08-14T03:07:06.527Z,18.21
2022-08-14T03:12:26.845Z,18.21
2022-08-14T03:17:41.074Z,18.22
2022-08-14T03:23:05.364Z,18.22
2022-08-14T03:28:29.679Z,18.21
2022-08-14T03:33:42.116Z,18.20
2022-08-14T03:39:15.529Z,18.20
2022-08-14T03:45:25.217Z,18.21
2022-08-14T03:49:50.238Z,18.20
2022-08-14T03:54:57.781Z,18.19
2022-08-14T04:00:07.236Z,18.19
2022-08-14T04:05:21.292Z,18.16
2022-08-14T04:10:32.528Z,18.15
2022-08-14T04:15:56.370Z,18.17
2022-08-14T04:21:08.380Z,18.16
2022-08-14T04:26:27.475Z,18.14
2022-08-14T04:33:10.696Z,18.16
2022-08-14T04:37:32.977Z,18.20
2022-08-14T04:42:58.017Z,18.20
2022-08-14T04:48:39.414Z,18.21
2022-08-14T04:53:44.023Z,18.24
2022-08-14T04:58:57.800Z,18.29
2022-08-14T05:04:05.662Z,18.32
2022-08-14T05:09:14.568Z,18.36
2022-08-14T05:14:43.280Z,18.39
2022-08-14T05:21:05.033Z,18.44
2022-08-14T05:25:18.061Z,18.49
2022-08-14T05:30:25.468Z,18.61
2022-08-14T05:35:33.722Z,18.66
2022-08-14T05:40:43.099Z,18.69
2022-08-14T05:45:50.199Z,18.70
2022-08-14T05:50:58.286Z,18.72
2022-08-14T05:56:06.378Z,18.76
2022-08-14T06:01:13.937Z,18.83
2022-08-14T06:06:22.565Z,18.86
2022-08-14T06:11:31.373Z,18.93
2022-08-14T06:16:38.958Z,19.02
2022-08-14T06:21:48.155Z,19.09
2022-08-14T06:27:03.744Z,19.12
2022-08-14T06:32:36.670Z,19.12
2022-08-14T06:37:48.997Z,19.17
2022-08-14T06:43:00.294Z,19.26
2022-08-14T06:48:17.176Z,19.34
2022-08-14T06:53:27.484Z,19.44
2022-08-14T06:58:35.600Z,19.54
2022-08-14T07:04:01.641Z,19.62
2022-08-14T07:09:10.893Z,19.69
2022-08-14T07:14:17.883Z,19.77
2022-08-14T07:19:24.993Z,19.84
2022-08-14T07:24:32.127Z,19.91
2022-08-14T07:29:39.345Z,19.99
2022-08-14T07:34:47.630Z,20.07
2022-08-14T07:39:55.536Z,20.15
2022-08-14T07:45:03.270Z,20.22
2022-08-14T07:50:18.605Z,20.24
2022-08-14T07:55:29.098Z,20.29
2022-08-14T08:00:36.049Z,20.32
2022-08-14T08:05:46.864Z,20.33
2022-08-14T08:11:02.448Z,20.38
2022-08-14T08:16:10.757Z,20.49
2022-08-14T08:21:19.201Z,20.62
2022-08-14T08:26:32.335Z,20.71
2022-08-14T08:31:52.118Z,20.85
2022-08-14T08:37:05.170Z,21.00
2022-08-14T08:42:14.476Z,21.07
2022-08-14T08:47:21.727Z,21.18
2022-08-14T08:52:31.883Z,21.40
2022-08-14T08:57:39.614Z,21.67
2022-08-14T09:02:57.869Z,21.89
2022-08-14T09:08:30.720Z,21.99
2022-08-14T09:13:39.216Z,21.98
2022-08-14T09:18:49.833Z,21.93
2022-08-14T09:24:28.156Z,21.87
2022-08-14T09:29:28.924Z,21.79
2022-08-14T09:34:58.426Z,21.77
2022-08-14T09:40:20.711Z,21.82
2022-08-14T09:45:39.685Z,21.88
2022-08-14T09:50:53.003Z,21.94
2022-08-14T09:56:04.473Z,21.98
2022-08-14T10:01:22.632Z,22.02
2022-08-14T10:06:33.049Z,22.08
2022-08-14T10:11:43.508Z,22.12
2022-08-14T10:16:55.397Z,22.22
2022-08-14T10:23:12.445Z,22.24
2022-08-14T10:27:34.815Z,22.29
2022-08-14T10:32:49.679Z,22.38
2022-08-14T10:38:07.397Z,22.50
2022-08-14T10:43:26.419Z,22.56
2022-08-14T10:48:38.320Z,22.64
2022-08-14T10:53:57.614Z,22.72
2022-08-14T10:59:08.134Z,22.81
2022-08-14T11:04:32.297Z,22.97
2022-08-14T11:09:42.974Z,23.14
2022-08-14T11:15:02.097Z,23.25
2022-08-14T11:20:16.207Z,23.38
2022-08-14T11:25:43.882Z,23.47
2022-08-14T11:30:54.682Z,23.59
2022-08-14T11:36:17.891Z,23.72
2022-08-14T11:41:27.322Z,23.75
2022-08-14T11:46:37.731Z,23.81
2022-08-14T11:51:56.558Z,23.85
2022-08-14T11:57:14.901Z,23.79
2022-08-14T12:03:01.780Z,23.75
2022-08-14T12:07:55.192Z,23.66
2022-08-14T12:13:12.019Z,23.59
2022-08-14T12:18:20.016Z,23.62
2022-08-14T12:23:28.077Z,23.69
2022-08-14T12:29:00.149Z,23.68
2022-08-14T12:34:10.164Z,23.72
2022-08-14T12:39:24.785Z,23.75
2022-08-14T12:44:39.404Z,23.82
2022-08-14T12:49:57.564Z,23.87
2022-08-14T12:55:09.634Z,23.94
2022-08-14T13:00:23.113Z,24.03
2022-08-14T13:05:32.759Z,24.02
2022-08-14T13:10:51.294Z,23.95
2022-08-14T13:16:00.164Z,23.85
2022-08-14T13:21:08.132Z,23.80
2022-08-14T13:26:34.209Z,23.93
2022-08-14T13:31:47.388Z,24.06
2022-08-14T13:37:03.639Z,24.19
2022-08-14T13:42:15.077Z,24.24
2022-08-14T13:47:24.031Z,24.31
2022-08-14T13:52:51.898Z,24.35
2022-08-14T13:58:05.233Z,24.27
2022-08-14T14:03:12.919Z,24.28
2022-08-14T14:08:47.057Z,24.33
2022-08-14T14:13:49.473Z,24.37
2022-08-14T14:19:09.126Z,24.38
2022-08-14T14:24:17.570Z,24.41
2022-08-14T14:29:27.289Z,24.45
2022-08-14T14:34:38.124Z,24.39
2022-08-14T14:40:52.818Z,24.40
2022-08-14T14:45:19.759Z,24.45
2022-08-14T14:50:27.178Z,24.50
2022-08-14T14:55:43.092Z,24.52
2022-08-14T15:01:06.136Z,24.55
2022-08-14T15:06:17.552Z,24.55
2022-08-14T15:11:26.480Z,24.52
2022-08-14T15:16:38.283Z,24.52
2022-08-14T15:21:45.911Z,24.56
2022-08-14T15:26:58.502Z,24.59
2022-08-14T15:32:08.776Z,24.57
2022-08-14T15:37:16.897Z,24.50
2022-08-14T15:42:25.212Z,24.43
2022-08-14T15:47:36.071Z,24.41
2022-08-14T15:58:14.409Z,24.42
2022-08-14T16:03:27.280Z,24.43
2022-08-14T16:08:43.151Z,24.45
2022-08-14T16:13:51.580Z,24.47
2022-08-14T16:19:07.511Z,24.44
2022-08-14T16:24:27.985Z,24.41
2022-08-14T16:29:38.594Z,24.37
2022-08-14T16:34:48.485Z,24.33
2022-08-14T16:39:59.672Z,24.32
2022-08-14T16:45:09.523Z,24.30
2022-08-14T16:50:40.564Z,24.28
2022-08-14T16:55:53.492Z,24.26
2022-08-14T17:01:24.554Z,24.23
2022-08-14T17:06:55.949Z,24.20
2022-08-14T17:12:07.160Z,24.16
2022-08-14T17:17:15.617Z,24.09
2022-08-14T17:22:22.511Z,24.02
2022-08-14T17:27:34.056Z,23.94
2022-08-14T17:32:44.525Z,23.86
2022-08-14T17:38:38.541Z,23.79
2022-08-14T17:43:42.123Z,23.72
2022-08-14T17:49:15.560Z,23.64
2022-08-14T17:54:22.518Z,23.57
2022-08-14T17:59:43.860Z,23.50
2022-08-14T18:04:51.779Z,23.41
2022-08-14T18:10:52.336Z,23.31
2022-08-14T18:15:37.290Z,23.23
2022-08-14T18:21:42.048Z,23.16
2022-08-14T18:26:35.994Z,23.11
2022-08-14T18:31:41.968Z,23.06
2022-08-14T18:36:57.146Z,22.99
2022-08-14T18:42:39.868Z,22.92
2022-08-14T18:48:15.754Z,22.83
2022-08-14T18:53:34.014Z,22.74
2022-08-14T18:58:57.262Z,22.67
2022-08-14T19:04:08.412Z,22.60
2022-08-14T19:09:50.336Z,22.54
2022-08-14T19:15:11.844Z,22.47
2022-08-14T19:20:22.301Z,22.40
2022-08-14T19:25:52.694Z,22.33
2022-08-14T19:31:42.235Z,22.28
2022-08-14T19:37:05.682Z,22.24
2022-08-14T19:42:28.538Z,22.21
2022-08-14T19:47:41.519Z,22.18
2022-08-14T19:52:49.044Z,22.13
2022-08-14T19:57:59.449Z,22.03
2022-08-14T20:03:11.965Z,21.97
2022-08-14T20:10:59.556Z,21.94
2022-08-14T20:14:01.268Z,21.91
2022-08-14T20:19:17.809Z,21.89
2022-08-14T20:24:31.561Z,21.85
2022-08-14T20:29:40.744Z,21.80
2022-08-14T20:34:51.461Z,21.75
2022-08-14T20:39:59.069Z,21.69
2022-08-14T20:45:23.936Z,21.61
2022-08-14T20:50:32.261Z,21.53
2022-08-14T20:55:45.323Z,21.46
2022-08-14T21:01:00.846Z,21.40
2022-08-14T21:06:17.358Z,21.33
2022-08-14T21:11:30.647Z,21.20
2022-08-14T21:16:58.004Z,21.09
2022-08-14T21:22:05.314Z,20.92
2022-08-14T21:27:20.079Z,20.72
2022-08-14T21:32:50.373Z,20.67
2022-08-14T21:38:05.681Z,20.64
2022-08-14T21:43:18.054Z,20.58
2022-08-14T21:48:29.573Z,20.46
2022-08-14T21:53:58.183Z,20.31
2022-08-14T21:59:06.191Z,20.04
2022-08-14T22:04:32.877Z,19.87
2022-08-14T22:09:43.056Z,19.79
2022-08-14T22:14:50.340Z,19.75
2022-08-14T22:19:58.463Z,19.64
2022-08-14T22:25:07.168Z,19.54
2022-08-14T22:30:18.534Z,19.50
2022-08-14T22:35:25.935Z,19.55
2022-08-14T22:40:59.954Z,19.60
2022-08-14T22:46:02.292Z,19.59
2022-08-14T22:51:10.039Z,19.56
2022-08-14T22:56:29.532Z,19.47
2022-08-14T23:01:56.867Z,19.43
2022-08-14T23:07:21.884Z,19.42
2022-08-14T23:12:35.004Z,19.42
2022-08-14T23:17:44.781Z,19.40
2022-08-14T23:22:56.863Z,19.35
2022-08-14T23:28:05.115Z,19.31
2022-08-14T23:33:18.492Z,19.25
2022-08-14T23:38:31.006Z,19.18
2022-08-14T23:43:42.595Z,19.14
2022-08-14T23:48:52.697Z,19.12
2022-08-14T23:54:00.724Z,19.08
2022-08-14T23:59:10.533Z,19.03
